Time,TemperatureF,DewpointF,PressureIn,WindDirection,WindDirectionDegrees,WindSpeedMPH,WindSpeedGustMPH,Humidity,HourlyPrecipIn,Conditions,Clouds,dailyrainin,SoftwareType,DateUTC
2013-01-13 00:00:00,25.1,22.6,29.96,NNW,340,2.0,2.0,90,0.00,,,0.00,Wunderground v.1.15,2013-01-13 06:00:00,
2013-01-13 00:05:00,25.1,22.6,29.96,NNW,342,2.0,4.0,90,0.00,,,0.00,Wunderground v.1.15,2013-01-13 06:05:00,
2013-01-13 00:10:00,25.0,22.5,29.96,NW,317,4.0,5.0,90,0.00,,,0.00,Wunderground v.1.15,2013-01-13 06:10:00,
2013-01-13 00:15:00,24.9,22.4,29.97,North,355,3.0,5.0,90,0.00,,,0.00,Wunderground v.1.15,2013-01-13 06:15:00,
2013-01-13 00:20:00,24.9,22.4,29.97,NNW,347,4.0,5.0,90,0.00,,,0.00,Wunderground v.1.15,2013-01-13 06:20:00,
2013-01-13 00:25:00,24.9,22.4,29.98,NNW,339,5.0,5.0,90,0.00,,,0.00,Wunderground v.1.15,2013-01-13 06:25:00,
2013-01-13 00:30:00,24.8,22.3,29.97,North,349,9.0,9.0,90,0.00,,,0.00,Wunderground v.1.15,2013-01-13 06:30:00,
2013-01-13 00:35:00,24.7,22.2,29.97,North,350,4.0,9.0,90,0.00,,,0.00,Wunderground v.1.15,2013-01-13 06:35:00,
2013-01-13 00:41:00,24.7,22.2,29.97,NNW,338,4.0,5.0,90,0.00,,,0.00,Wunderground v.1.15,2013-01-13 06:41:00,
2013-01-13 00:46:00,24.7,22.2,29.97,NNW,333,12.0,12.0,90,0.00,,,0.00,Wunderground v.1.15,2013-01-13 06:46:00,
2013-01-13 00:51:00,24.4,21.6,29.97,NNW,336,9.0,9.0,89,0.00,,,0.00,Wunderground v.1.15,2013-01-13 06:51:00,
2013-01-13 00:56:00,24.3,21.5,29.95,NNW,347,2.0,9.0,89,0.00,,,0.00,Wunderground v.1.15,2013-01-13 06:56:00,
2013-01-13 01:02:00,24.3,21.5,29.95,North,355,7.0,7.0,89,0.00,,,0.00,Wunderground v.1.15,2013-01-13 07:02:00,
2013-01-13 01:07:00,24.1,21.3,29.95,North,360,2.0,11.0,89,0.00,,,0.00,Wunderground v.1.15,2013-01-13 07:07:00,
2013-01-13 01:12:00,24.0,21.5,29.94,NNW,344,10.0,10.0,90,0.00,,,0.00,Wunderground v.1.15,2013-01-13 07:12:00,
2013-01-13 01:17:00,24.0,21.5,29.94,NNE,17,7.0,10.0,90,0.00,,,0.00,Wunderground v.1.15,2013-01-13 07:17:00,
2013-01-13 01:22:00,23.9,21.4,29.94,NNW,346,6.0,9.0,90,0.00,,,0.00,Wunderground v.1.15,2013-01-13 07:22:00,
2013-01-13 01:27:00,23.8,21.3,29.95,NNE,32,7.0,9.0,90,0.00,,,0.00,Wunderground v.1.15,2013-01-13 07:27:00,
2013-01-13 01:33:00,23.9,21.4,29.95,NNW,348,5.0,5.0,90,0.00,,,0.00,Wunderground v.1.15,2013-01-13 07:33:00,
2013-01-13 01:38:00,23.7,20.9,29.95,North,355,5.0,7.0,89,0.00,,,0.00,Wunderground v.1.15,2013-01-13 07:38:00,
2013-01-13 01:43:00,23.6,20.8,29.95,North,349,5.0,6.0,89,0.00,,,0.00,Wunderground v.1.15,2013-01-13 07:43:00,
2013-01-13 01:48:00,23.5,20.7,29.98,NNW,336,5.0,7.0,89,0.00,,,0.00,Wunderground v.1.15,2013-01-13 07:48:00,
2013-01-13 01:53:00,23.4,20.6,29.98,NNW,336,10.0,10.0,89,0.00,,,0.00,Wunderground v.1.15,2013-01-13 07:53:00,
2013-01-13 01:59:00,23.2,20.4,29.98,NW,309,6.0,10.0,89,0.00,,,0.00,Wunderground v.1.15,2013-01-13 07:59:00,
2013-01-13 02:04:00,23.2,20.4,29.98,NNW,327,2.0,6.0,89,0.00,,,0.00,Wunderground v.1.15,2013-01-13 08:04:00,
2013-01-13 02:09:00,23.2,20.4,29.98,NW,319,4.0,8.0,89,0.00,,,0.00,Wunderground v.1.15,2013-01-13 08:09:00,
2013-01-13 02:14:00,23.1,20.3,29.97,North,355,4.0,7.0,89,0.00,,,0.00,Wunderground v.1.15,2013-01-13 08:14:00,
2013-01-13 02:19:00,23.0,20.2,29.95,NE,48,3.0,7.0,89,0.00,,,0.00,Wunderground v.1.15,2013-01-13 08:19:00,
2013-01-13 02:24:00,22.9,20.1,29.92,North,9,5.0,10.0,89,0.00,,,0.00,Wunderground v.1.15,2013-01-13 08:24:00,
2013-01-13 02:29:00,22.8,20.0,29.91,NE,47,5.0,10.0,89,0.00,,,0.00,Wunderground v.1.15,2013-01-13 08:29:00,
2013-01-13 02:34:00,22.7,19.9,29.92,NE,43,5.0,6.0,89,0.00,,,0.00,Wunderground v.1.15,2013-01-13 08:34:00,
2013-01-13 02:40:00,22.6,19.8,29.93,NNW,342,5.0,5.0,89,0.00,,,0.00,Wunderground v.1.15,2013-01-13 08:40:00,
2013-01-13 02:45:00,22.6,19.8,29.94,North,5,3.0,7.0,89,0.00,,,0.00,Wunderground v.1.15,2013-01-13 08:45:00,
2013-01-13 02:50:00,22.5,19.5,29.95,NNE,13,2.0,5.0,88,0.00,,,0.00,Wunderground v.1.15,2013-01-13 08:50:00,
2013-01-13 02:55:00,22.4,19.4,29.94,North,355,6.0,6.0,88,0.00,,,0.00,Wunderground v.1.15,2013-01-13 08:55:00,
2013-01-13 03:00:00,22.4,19.4,29.96,North,350,2.0,3.0,88,0.00,,,0.00,Wunderground v.1.15,2013-01-13 09:00:00,
2013-01-13 03:06:00,22.4,19.4,29.97,NNW,342,4.0,7.0,88,0.00,,,0.00,Wunderground v.1.15,2013-01-13 09:06:00,
2013-01-13 03:11:00,22.5,19.5,29.97,North,351,5.0,5.0,88,0.00,,,0.00,Wunderground v.1.15,2013-01-13 09:11:00,
2013-01-13 03:16:00,22.5,19.5,29.99,NNW,344,5.0,9.0,88,0.00,,,0.00,Wunderground v.1.15,2013-01-13 09:16:00,
2013-01-13 03:21:00,22.5,19.5,30.00,NW,317,3.0,4.0,88,0.00,,,0.00,Wunderground v.1.15,2013-01-13 09:21:00,
2013-01-13 03:26:00,22.4,19.4,30.00,NNW,345,3.0,9.0,88,0.00,,,0.00,Wunderground v.1.15,2013-01-13 09:26:00,
2013-01-13 03:31:00,22.3,19.0,30.00,NNW,332,4.0,6.0,87,0.00,,,0.00,Wunderground v.1.15,2013-01-13 09:31:00,
2013-01-13 03:37:00,22.2,18.7,30.00,NW,315,6.0,7.0,86,0.00,,,0.00,Wunderground v.1.15,2013-01-13 09:37:00,
2013-01-13 03:42:00,22.1,18.6,30.00,NNW,332,2.0,6.0,86,0.00,,,0.00,Wunderground v.1.15,2013-01-13 09:42:00,
2013-01-13 03:47:00,22.1,18.3,30.00,North,355,2.0,9.0,85,0.00,,,0.00,Wunderground v.1.15,2013-01-13 09:47:00,
2013-01-13 03:53:00,22.1,18.6,29.99,North,350,5.0,6.0,86,0.00,,,0.00,Wunderground v.1.15,2013-01-13 09:53:00,
2013-01-13 03:58:00,22.0,18.5,29.98,NNW,348,3.0,8.0,86,0.00,,,0.00,Wunderground v.1.15,2013-01-13 09:58:00,
2013-01-13 04:03:00,22.0,18.5,29.97,NNE,15,3.0,10.0,86,0.00,,,0.00,Wunderground v.1.15,2013-01-13 10:03:00,
2013-01-13 04:08:00,22.0,18.5,29.96,North,355,2.0,10.0,86,0.00,,,0.00,Wunderground v.1.15,2013-01-13 10:08:00,
2013-01-13 04:13:00,21.9,18.4,29.96,NNW,336,3.0,10.0,86,0.00,,,0.00,Wunderground v.1.15,2013-01-13 10:13:00,
2013-01-13 04:19:00,21.8,18.0,29.96,NNW,340,6.0,10.0,85,0.00,,,0.00,Wunderground v.1.15,2013-01-13 10:19:00,
2013-01-13 04:24:00,21.7,17.9,29.93,ENE,63,4.0,8.0,85,0.00,,,0.00,Wunderground v.1.15,2013-01-13 10:24:00,
2013-01-13 04:29:00,21.6,17.5,29.94,NNE,17,4.0,10.0,84,0.00,,,0.00,Wunderground v.1.15,2013-01-13 10:29:00,
2013-01-13 04:34:00,21.6,17.5,29.94,North,360,4.0,7.0,84,0.00,,,0.00,Wunderground v.1.15,2013-01-13 10:34:00,
2013-01-13 04:39:00,21.5,17.4,29.95,NNW,331,5.0,7.0,84,0.00,,,0.00,Wunderground v.1.15,2013-01-13 10:39:00,
2013-01-13 04:44:00,21.6,17.8,29.96,NNW,344,1.0,7.0,85,0.00,,,0.00,Wunderground v.1.15,2013-01-13 10:44:00,
2013-01-13 04:49:00,21.5,17.7,29.97,NW,318,5.0,12.0,85,0.00,,,0.00,Wunderground v.1.15,2013-01-13 10:49:00,
2013-01-13 04:55:00,21.6,17.8,29.97,NW,314,9.0,10.0,85,0.00,,,0.00,Wunderground v.1.15,2013-01-13 10:55:00,
2013-01-13 05:00:00,21.5,17.4,29.97,North,5,4.0,6.0,84,0.00,,,0.00,Wunderground v.1.15,2013-01-13 11:00:00,
2013-01-13 05:06:00,21.5,17.7,29.98,NNW,348,5.0,6.0,85,0.00,,,0.00,Wunderground v.1.15,2013-01-13 11:06:00,
2013-01-13 05:11:00,21.5,17.7,29.99,NNW,348,1.0,4.0,85,0.00,,,0.00,Wunderground v.1.15,2013-01-13 11:11:00,
2013-01-13 05:16:00,21.5,17.7,30.00,NNW,341,2.0,6.0,85,0.00,,,0.00,Wunderground v.1.15,2013-01-13 11:16:00,
2013-01-13 05:21:00,21.4,17.6,30.00,NNW,342,4.0,6.0,85,0.00,,,0.00,Wunderground v.1.15,2013-01-13 11:21:00,
2013-01-13 05:27:00,21.3,17.5,30.00,NNW,346,5.0,6.0,85,0.00,,,0.00,Wunderground v.1.15,2013-01-13 11:27:00,
2013-01-13 05:32:00,21.2,17.1,30.01,North,350,6.0,6.0,84,0.00,,,0.00,Wunderground v.1.15,2013-01-13 11:32:00,
2013-01-13 05:37:00,19.7,15.4,30.02,WNW,290,0.0,7.0,83,0.00,,,0.00,Wunderground v.1.15,2013-01-13 11:37:00,
2013-01-13 05:42:00,21.0,16.6,30.02,North,349,6.0,6.0,83,0.00,,,0.00,Wunderground v.1.15,2013-01-13 11:42:00,
2013-01-13 05:47:00,21.0,16.6,30.02,NW,310,6.0,7.0,83,0.00,,,0.00,Wunderground v.1.15,2013-01-13 11:47:00,
2013-01-13 05:52:00,21.0,16.6,30.02,NNW,345,6.0,9.0,83,0.00,,,0.00,Wunderground v.1.15,2013-01-13 11:52:00,
2013-01-13 05:58:00,20.9,16.3,30.03,NNW,330,4.0,9.0,82,0.00,,,0.00,Wunderground v.1.15,2013-01-13 11:58:00,
2013-01-13 06:03:00,20.8,16.2,30.04,WNW,294,4.0,9.0,82,0.00,,,0.00,Wunderground v.1.15,2013-01-13 12:03:00,
2013-01-13 06:09:00,20.7,16.1,30.03,WNW,292,7.0,9.0,82,0.00,,,0.00,Wunderground v.1.15,2013-01-13 12:09:00,
2013-01-13 06:15:00,20.7,16.1,30.02,NW,315,5.0,6.0,82,0.00,,,0.00,Wunderground v.1.15,2013-01-13 12:15:00,
2013-01-13 06:20:00,20.6,15.7,30.03,NW,323,4.0,5.0,81,0.00,,,0.00,Wunderground v.1.15,2013-01-13 12:20:00,
2013-01-13 06:26:00,20.5,15.6,30.01,NNW,340,3.0,7.0,81,0.00,,,0.00,Wunderground v.1.15,2013-01-13 12:26:00,
2013-01-13 06:32:00,20.5,15.9,30.01,NW,321,5.0,5.0,82,0.00,,,0.00,Wunderground v.1.15,2013-01-13 12:32:00,
2013-01-13 06:37:00,20.4,15.8,30.02,NW,326,3.0,6.0,82,0.00,,,0.00,Wunderground v.1.15,2013-01-13 12:37:00,
2013-01-13 06:41:00,20.5,15.9,30.02,NNW,335,4.0,6.0,82,0.00,,,0.00,Wunderground v.1.15,2013-01-13 12:41:00,
2013-01-13 06:47:00,20.4,15.8,30.02,NW,313,5.0,6.0,82,0.00,,,0.00,Wunderground v.1.15,2013-01-13 12:47:00,
2013-01-13 06:52:00,20.4,15.8,30.02,NW,320,7.0,7.0,82,0.00,,,0.00,Wunderground v.1.15,2013-01-13 12:52:00,
2013-01-13 06:57:00,20.4,15.5,30.03,NNE,12,3.0,7.0,81,0.00,,,0.00,Wunderground v.1.15,2013-01-13 12:57:00,
2013-01-13 07:02:00,20.4,15.8,30.03,NW,317,3.0,4.0,82,0.00,,,0.00,Wunderground v.1.15,2013-01-13 13:02:00,
2013-01-13 07:07:00,20.4,15.8,30.02,NNW,347,2.0,5.0,82,0.00,,,0.00,Wunderground v.1.15,2013-01-13 13:07:00,
2013-01-13 07:12:00,20.4,15.8,30.02,NNW,335,4.0,6.0,82,0.00,,,0.00,Wunderground v.1.15,2013-01-13 13:12:00,
2013-01-13 07:17:00,20.3,15.7,30.02,NW,313,4.0,6.0,82,0.00,,,0.00,Wunderground v.1.15,2013-01-13 13:17:00,
2013-01-13 07:22:00,20.4,15.8,30.01,NNW,333,6.0,6.0,82,0.00,,,0.00,Wunderground v.1.15,2013-01-13 13:22:00,
2013-01-13 07:27:00,20.3,15.7,30.02,NW,304,5.0,8.0,82,0.00,,,0.00,Wunderground v.1.15,2013-01-13 13:27:00,
2013-01-13 07:32:00,20.2,15.6,30.02,NNW,330,5.0,7.0,82,0.00,,,0.00,Wunderground v.1.15,2013-01-13 13:32:00,
2013-01-13 07:37:00,20.1,15.2,30.03,NW,310,5.0,9.0,81,0.00,,,0.00,Wunderground v.1.15,2013-01-13 13:37:00,
2013-01-13 07:42:00,20.1,15.5,30.04,WNW,294,3.0,8.0,82,0.00,,,0.00,Wunderground v.1.15,2013-01-13 13:42:00,
2013-01-13 07:47:00,20.1,15.5,30.04,North,349,5.0,10.0,82,0.00,,,0.00,Wunderground v.1.15,2013-01-13 13:47:00,
2013-01-13 07:52:00,20.1,15.5,30.04,NW,308,5.0,9.0,82,0.00,,,0.00,Wunderground v.1.15,2013-01-13 13:52:00,
2013-01-13 07:57:00,20.0,15.4,30.05,NNW,342,7.0,9.0,82,0.00,,,0.00,Wunderground v.1.15,2013-01-13 13:57:00,
2013-01-13 08:02:00,20.0,15.4,30.05,NNW,327,5.0,8.0,82,0.00,,,0.00,Wunderground v.1.15,2013-01-13 14:02:00,
2013-01-13 08:07:00,19.9,15.3,30.05,NNW,336,5.0,9.0,82,0.00,,,0.00,Wunderground v.1.15,2013-01-13 14:07:00,
2013-01-13 08:13:00,19.8,15.2,30.05,NNW,331,6.0,7.0,82,0.00,,,0.00,Wunderground v.1.15,2013-01-13 14:13:00,
2013-01-13 08:18:00,19.7,14.8,30.06,NW,313,3.0,9.0,81,0.00,,,0.00,Wunderground v.1.15,2013-01-13 14:18:00,
2013-01-13 08:23:00,19.6,14.7,30.06,NW,319,5.0,7.0,81,0.00,,,0.00,Wunderground v.1.15,2013-01-13 14:23:00,
2013-01-13 08:28:00,19.5,14.6,30.05,NW,308,5.0,9.0,81,0.00,,,0.00,Wunderground v.1.15,2013-01-13 14:28:00,
2013-01-13 08:33:00,19.5,14.6,30.05,NNW,329,5.0,7.0,81,0.00,,,0.00,Wunderground v.1.15,2013-01-13 14:33:00,
2013-01-13 08:39:00,19.5,14.6,30.07,NW,324,7.0,9.0,81,0.00,,,0.00,Wunderground v.1.15,2013-01-13 14:39:00,
2013-01-13 08:44:00,19.6,15.0,30.07,NW,312,6.0,7.0,82,0.00,,,0.00,Wunderground v.1.15,2013-01-13 14:44:00,
2013-01-13 08:49:00,19.6,14.7,30.07,NW,318,5.0,10.0,81,0.00,,,0.00,Wunderground v.1.15,2013-01-13 14:49:00,
2013-01-13 08:54:00,19.5,14.6,30.07,NNW,346,5.0,9.0,81,0.00,,,0.00,Wunderground v.1.15,2013-01-13 14:54:00,
2013-01-13 09:00:00,19.5,14.6,30.08,NW,313,5.0,5.0,81,0.00,,,0.00,Wunderground v.1.15,2013-01-13 15:00:00,
2013-01-13 09:05:00,19.4,14.5,30.08,WNW,300,7.0,10.0,81,0.00,,,0.00,Wunderground v.1.15,2013-01-13 15:05:00,
2013-01-13 09:11:00,19.2,14.0,30.08,North,355,6.0,6.0,80,0.00,,,0.00,Wunderground v.1.15,2013-01-13 15:11:00,
2013-01-13 09:17:00,19.1,13.9,30.09,NW,315,6.0,9.0,80,0.00,,,0.00,Wunderground v.1.15,2013-01-13 15:17:00,
2013-01-13 09:22:00,19.0,13.8,30.07,NNW,331,6.0,10.0,80,0.00,,,0.00,Wunderground v.1.15,2013-01-13 15:22:00,
2013-01-13 09:27:00,19.0,13.8,30.08,NNW,341,10.0,10.0,80,0.00,,,0.00,Wunderground v.1.15,2013-01-13 15:27:00,
2013-01-13 09:33:00,18.8,13.4,30.08,North,355,5.0,13.0,79,0.00,,,0.00,Wunderground v.1.15,2013-01-13 15:33:00,
2013-01-13 09:38:00,18.8,13.9,30.08,NNW,339,4.0,13.0,81,0.00,,,0.00,Wunderground v.1.15,2013-01-13 15:38:00,
2013-01-13 09:43:00,18.8,13.7,30.07,NW,315,7.0,11.0,80,0.00,,,0.00,Wunderground v.1.15,2013-01-13 15:43:00,
2013-01-13 09:48:00,18.6,13.5,30.07,North,349,11.0,13.0,80,0.00,,,0.00,Wunderground v.1.15,2013-01-13 15:48:00,
2013-01-13 09:55:00,18.4,13.3,30.07,North,355,5.0,13.0,80,0.00,,,0.00,Wunderground v.1.15,2013-01-13 15:55:00,
2013-01-13 10:00:00,18.5,13.4,30.07,NW,323,10.0,10.0,80,0.00,,,0.00,Wunderground v.1.15,2013-01-13 16:00:00,
2013-01-13 10:06:00,18.4,13.3,30.06,NW,305,7.0,15.0,80,0.00,,,0.00,Wunderground v.1.15,2013-01-13 16:06:00,
2013-01-13 10:11:00,18.4,13.0,30.06,NW,317,6.0,14.0,79,0.00,,,0.00,Wunderground v.1.15,2013-01-13 16:11:00,
2013-01-13 10:16:00,18.6,13.5,30.06,NNW,336,6.0,14.0,80,0.00,,,0.00,Wunderground v.1.15,2013-01-13 16:16:00,
2013-01-13 10:21:00,18.7,13.6,30.05,NNW,342,3.0,7.0,80,0.00,,,0.00,Wunderground v.1.15,2013-01-13 16:21:00,
2013-01-13 10:26:00,18.9,14.0,30.05,NNW,334,6.0,9.0,81,0.00,,,0.00,Wunderground v.1.15,2013-01-13 16:26:00,
2013-01-13 10:31:00,18.8,13.4,30.05,North,350,6.0,10.0,79,0.00,,,0.00,Wunderground v.1.15,2013-01-13 16:31:00,
2013-01-13 10:36:00,18.4,13.0,30.05,NNW,336,5.0,12.0,79,0.00,,,0.00,Wunderground v.1.15,2013-01-13 16:36:00,
2013-01-13 10:41:00,18.4,13.3,30.05,NW,319,6.0,6.0,80,0.00,,,0.00,Wunderground v.1.15,2013-01-13 16:41:00,
2013-01-13 10:46:00,18.3,13.2,30.06,NNW,342,6.0,11.0,80,0.00,,,0.00,Wunderground v.1.15,2013-01-13 16:46:00,
2013-01-13 10:52:00,18.1,12.7,30.06,NW,326,6.0,9.0,79,0.00,,,0.00,Wunderground v.1.15,2013-01-13 16:52:00,
2013-01-13 10:58:00,18.0,12.6,30.06,North,11,4.0,10.0,79,0.00,,,0.00,Wunderground v.1.15,2013-01-13 16:58:00,
2013-01-13 11:03:00,18.1,12.7,30.07,NW,321,2.0,4.0,79,0.00,,,0.00,Wunderground v.1.15,2013-01-13 17:03:00,
2013-01-13 11:08:00,18.0,12.6,30.06,NW,314,3.0,6.0,79,0.00,,,0.00,Wunderground v.1.15,2013-01-13 17:08:00,
2013-01-13 11:13:00,17.9,12.2,30.07,WNW,300,6.0,9.0,78,0.00,,,0.00,Wunderground v.1.15,2013-01-13 17:13:00,
2013-01-13 11:18:00,17.9,12.5,30.07,WNW,294,3.0,10.0,79,0.00,,,0.00,Wunderground v.1.15,2013-01-13 17:18:00,
2013-01-13 11:23:00,17.9,12.5,30.07,NW,311,5.0,7.0,79,0.00,,,0.00,Wunderground v.1.15,2013-01-13 17:23:00,
2013-01-13 11:28:00,17.9,12.5,30.07,NNW,332,5.0,9.0,79,0.00,,,0.00,Wunderground v.1.15,2013-01-13 17:28:00,
2013-01-13 11:33:00,18.0,12.9,30.07,NW,310,4.0,8.0,80,0.00,,,0.00,Wunderground v.1.15,2013-01-13 17:33:00,
2013-01-13 11:39:00,18.1,12.7,30.05,NW,317,8.0,9.0,79,0.00,,,0.00,Wunderground v.1.15,2013-01-13 17:39:00,
2013-01-13 11:44:00,18.0,12.6,30.05,NNW,333,7.0,11.0,79,0.00,,,0.00,Wunderground v.1.15,2013-01-13 17:44:00,
2013-01-13 11:50:00,18.0,12.9,30.04,NNW,331,4.0,6.0,80,0.00,,,0.00,Wunderground v.1.15,2013-01-13 17:50:00,
2013-01-13 11:55:00,17.9,12.8,30.04,NW,320,4.0,11.0,80,0.00,,,0.00,Wunderground v.1.15,2013-01-13 17:55:00,
2013-01-13 12:00:00,17.9,12.8,30.04,WNW,302,4.0,7.0,80,0.00,,,0.00,Wunderground v.1.15,2013-01-13 18:00:00,
2013-01-13 12:06:00,18.0,12.9,30.05,North,355,9.0,10.0,80,0.00,,,0.00,Wunderground v.1.15,2013-01-13 18:06:00,
2013-01-13 12:11:00,17.9,12.8,30.05,NNW,344,7.0,8.0,80,0.00,,,0.00,Wunderground v.1.15,2013-01-13 18:11:00,
2013-01-13 12:16:00,17.8,12.4,30.05,NW,324,6.0,12.0,79,0.00,,,0.00,Wunderground v.1.15,2013-01-13 18:16:00,
2013-01-13 12:22:00,17.6,12.2,30.06,NW,317,8.0,13.0,79,0.00,,,0.00,Wunderground v.1.15,2013-01-13 18:22:00,
2013-01-13 12:27:00,17.6,12.2,30.07,NW,318,7.0,13.0,79,0.00,,,0.00,Wunderground v.1.15,2013-01-13 18:27:00,
2013-01-13 12:32:00,17.6,12.2,30.05,NNE,14,6.0,12.0,79,0.00,,,0.00,Wunderground v.1.15,2013-01-13 18:32:00,
2013-01-13 12:37:00,17.6,12.5,30.05,NW,320,4.0,12.0,80,0.00,,,0.00,Wunderground v.1.15,2013-01-13 18:37:00,
2013-01-13 12:43:00,17.8,12.4,30.05,West,275,7.0,11.0,79,0.00,,,0.00,Wunderground v.1.15,2013-01-13 18:43:00,
2013-01-13 12:49:00,17.7,12.3,30.05,WNW,302,6.0,11.0,79,0.00,,,0.00,Wunderground v.1.15,2013-01-13 18:49:00,
2013-01-13 12:54:00,17.8,12.4,30.05,NW,321,6.0,12.0,79,0.00,,,0.00,Wunderground v.1.15,2013-01-13 18:54:00,
2013-01-13 12:59:00,17.7,12.3,30.05,NW,316,3.0,12.0,79,0.00,,,0.00,Wunderground v.1.15,2013-01-13 18:59:00,
2013-01-13 13:04:00,18.1,13.0,30.06,NW,317,6.0,7.0,80,0.00,,,0.00,Wunderground v.1.15,2013-01-13 19:04:00,
2013-01-13 13:10:00,18.4,13.0,30.05,WNW,284,11.0,11.0,79,0.00,,,0.00,Wunderground v.1.15,2013-01-13 19:10:00,
2013-01-13 13:15:00,18.0,12.0,30.06,NW,325,7.0,13.0,77,0.00,,,0.00,Wunderground v.1.15,2013-01-13 19:15:00,
2013-01-13 13:20:00,18.3,12.6,30.06,NW,308,9.0,10.0,78,0.00,,,0.00,Wunderground v.1.15,2013-01-13 19:20:00,
2013-01-13 13:25:00,18.3,12.6,30.06,NW,324,6.0,11.0,78,0.00,,,0.00,Wunderground v.1.15,2013-01-13 19:25:00,
2013-01-13 13:31:00,18.3,12.6,30.05,NNW,335,8.0,8.0,78,0.00,,,0.00,Wunderground v.1.15,2013-01-13 19:31:00,
2013-01-13 13:36:00,18.7,13.3,30.05,NW,319,3.0,8.0,79,0.00,,,0.00,Wunderground v.1.15,2013-01-13 19:36:00,
2013-01-13 13:42:00,19.5,13.8,30.05,NW,317,4.0,10.0,78,0.00,,,0.00,Wunderground v.1.15,2013-01-13 19:42:00,
2013-01-13 13:47:00,19.3,13.3,30.05,WNW,296,4.0,12.0,77,0.00,,,0.00,Wunderground v.1.15,2013-01-13 19:47:00,
2013-01-13 13:52:00,19.0,12.7,30.05,NNW,337,6.0,11.0,76,0.00,,,0.00,Wunderground v.1.15,2013-01-13 19:52:00,
2013-01-13 13:58:00,18.5,12.2,30.05,WNW,294,6.0,11.0,76,0.00,,,0.00,Wunderground v.1.15,2013-01-13 19:58:00,
2013-01-13 14:03:00,18.4,12.4,30.04,NNW,343,4.0,9.0,77,0.00,,,0.00,Wunderground v.1.15,2013-01-13 20:03:00,
2013-01-13 14:08:00,18.5,12.5,30.05,NW,316,6.0,12.0,77,0.00,,,0.00,Wunderground v.1.15,2013-01-13 20:08:00,
2013-01-13 14:13:00,18.7,12.7,30.06,NNW,338,3.0,7.0,77,0.00,,,0.00,Wunderground v.1.15,2013-01-13 20:13:00,
2013-01-13 14:18:00,18.9,12.9,30.06,WNW,290,1.0,10.0,77,0.00,,,0.00,Wunderground v.1.15,2013-01-13 20:18:00,
2013-01-13 14:23:00,18.9,12.9,30.05,NNW,343,4.0,6.0,77,0.00,,,0.00,Wunderground v.1.15,2013-01-13 20:23:00,
2013-01-13 14:28:00,18.8,12.5,30.07,NNW,338,4.0,7.0,76,0.00,,,0.00,Wunderground v.1.15,2013-01-13 20:28:00,
2013-01-13 14:33:00,18.8,12.8,30.08,NW,314,3.0,9.0,77,0.00,,,0.00,Wunderground v.1.15,2013-01-13 20:33:00,
2013-01-13 14:38:00,18.6,12.6,30.08,NW,319,5.0,10.0,77,0.00,,,0.00,Wunderground v.1.15,2013-01-13 20:38:00,
2013-01-13 14:43:00,18.6,12.6,30.08,NW,311,2.0,7.0,77,0.00,,,0.00,Wunderground v.1.15,2013-01-13 20:43:00,
2013-01-13 14:48:00,18.7,13.0,30.07,NNW,337,5.0,9.0,78,0.00,,,0.00,Wunderground v.1.15,2013-01-13 20:48:00,
2013-01-13 14:54:00,18.7,13.0,30.07,NNW,332,3.0,5.0,78,0.00,,,0.00,Wunderground v.1.15,2013-01-13 20:54:00,
2013-01-13 14:59:00,18.7,12.7,30.07,NNW,329,5.0,10.0,77,0.00,,,0.00,Wunderground v.1.15,2013-01-13 20:59:00,
2013-01-13 15:04:00,18.6,12.6,30.07,NNW,337,6.0,10.0,77,0.00,,,0.00,Wunderground v.1.15,2013-01-13 21:04:00,
2013-01-13 15:09:00,19.0,13.3,30.08,WNW,290,2.0,10.0,78,0.00,,,0.00,Wunderground v.1.15,2013-01-13 21:09:00,
2013-01-13 15:14:00,19.1,13.1,30.07,WNW,294,5.0,9.0,77,0.00,,,0.00,Wunderground v.1.15,2013-01-13 21:14:00,
2013-01-13 15:19:00,19.2,13.2,30.06,NW,317,5.0,9.0,77,0.00,,,0.00,Wunderground v.1.15,2013-01-13 21:19:00,
2013-01-13 15:24:00,19.1,13.1,30.07,NNW,336,9.0,11.0,77,0.00,,,0.00,Wunderground v.1.15,2013-01-13 21:24:00,
2013-01-13 15:29:00,18.9,12.9,30.07,WNW,299,4.0,11.0,77,0.00,,,0.00,Wunderground v.1.15,2013-01-13 21:29:00,
2013-01-13 15:34:00,18.7,12.7,30.07,NW,313,5.0,7.0,77,0.00,,,0.00,Wunderground v.1.15,2013-01-13 21:34:00,
2013-01-13 15:40:00,18.6,12.6,30.07,NW,309,4.0,5.0,77,0.00,,,0.00,Wunderground v.1.15,2013-01-13 21:40:00,
2013-01-13 15:45:00,18.6,12.9,30.07,NNW,336,3.0,7.0,78,0.00,,,0.00,Wunderground v.1.15,2013-01-13 21:45:00,
2013-01-13 15:50:00,18.6,12.9,30.08,NW,304,6.0,7.0,78,0.00,,,0.00,Wunderground v.1.15,2013-01-13 21:50:00,
2013-01-13 15:54:00,18.7,12.7,30.08,NW,314,4.0,9.0,77,0.00,,,0.00,Wunderground v.1.15,2013-01-13 21:54:00,
2013-01-13 16:00:00,18.7,13.0,30.07,NW,312,6.0,9.0,78,0.00,,,0.00,Wunderground v.1.15,2013-01-13 22:00:00,
2013-01-13 16:04:00,18.7,13.0,30.08,WNW,296,6.0,9.0,78,0.00,,,0.00,Wunderground v.1.15,2013-01-13 22:04:00,
2013-01-13 16:09:00,18.6,12.6,30.08,NNW,342,5.0,9.0,77,0.00,,,0.00,Wunderground v.1.15,2013-01-13 22:09:00,
2013-01-13 16:14:00,18.7,12.7,30.08,NW,311,6.0,11.0,77,0.00,,,0.00,Wunderground v.1.15,2013-01-13 22:14:00,
2013-01-13 16:19:00,18.8,12.8,30.08,WNW,297,5.0,11.0,77,0.00,,,0.00,Wunderground v.1.15,2013-01-13 22:19:00,
2013-01-13 16:25:00,18.9,12.6,30.08,NW,317,5.0,11.0,76,0.00,,,0.00,Wunderground v.1.15,2013-01-13 22:25:00,
2013-01-13 16:30:00,18.9,12.9,30.09,NW,313,5.0,6.0,77,0.00,,,0.00,Wunderground v.1.15,2013-01-13 22:30:00,
2013-01-13 16:35:00,18.9,12.9,30.10,NW,317,7.0,9.0,77,0.00,,,0.00,Wunderground v.1.15,2013-01-13 22:35:00,
2013-01-13 16:41:00,18.8,12.5,30.10,NNW,347,6.0,10.0,76,0.00,,,0.00,Wunderground v.1.15,2013-01-13 22:41:00,
2013-01-13 16:47:00,18.7,12.4,30.10,NW,315,4.0,10.0,76,0.00,,,0.00,Wunderground v.1.15,2013-01-13 22:47:00,
2013-01-13 16:52:00,18.8,12.5,30.10,North,350,10.0,10.0,76,0.00,,,0.00,Wunderground v.1.15,2013-01-13 22:52:00,
2013-01-13 16:57:00,18.6,12.3,30.11,NW,324,4.0,12.0,76,0.00,,,0.00,Wunderground v.1.15,2013-01-13 22:57:00,
2013-01-13 17:03:00,18.5,11.9,30.11,NW,311,3.0,11.0,75,0.00,,,0.00,Wunderground v.1.15,2013-01-13 23:03:00,
2013-01-13 17:08:00,18.5,11.9,30.12,WNW,299,10.0,11.0,75,0.00,,,0.00,Wunderground v.1.15,2013-01-13 23:08:00,
2013-01-13 17:13:00,18.5,11.9,30.13,NNW,339,3.0,12.0,75,0.00,,,0.00,Wunderground v.1.15,2013-01-13 23:13:00,
2013-01-13 17:18:00,18.5,11.9,30.13,NW,312,4.0,12.0,75,0.00,,,0.00,Wunderground v.1.15,2013-01-13 23:18:00,
2013-01-13 17:23:00,18.4,11.8,30.12,NW,306,7.0,12.0,75,0.00,,,0.00,Wunderground v.1.15,2013-01-13 23:23:00,
2013-01-13 17:28:00,18.4,11.8,30.12,WNW,296,5.0,12.0,75,0.00,,,0.00,Wunderground v.1.15,2013-01-13 23:28:00,
2013-01-13 17:33:00,18.3,11.7,30.13,NW,310,6.0,10.0,75,0.00,,,0.00,Wunderground v.1.15,2013-01-13 23:33:00,
2013-01-13 17:38:00,18.2,11.6,30.13,NNW,342,4.0,14.0,75,0.00,,,0.00,Wunderground v.1.15,2013-01-13 23:38:00,
2013-01-13 17:43:00,18.2,11.6,30.13,NW,319,9.0,15.0,75,0.00,,,0.00,Wunderground v.1.15,2013-01-13 23:43:00,
2013-01-13 17:49:00,18.0,11.1,30.13,North,350,6.0,15.0,74,0.00,,,0.00,Wunderground v.1.15,2013-01-13 23:49:00,
2013-01-13 17:54:00,17.9,11.3,30.14,NW,314,5.0,12.0,75,0.00,,,0.00,Wunderground v.1.15,2013-01-13 23:54:00,
2013-01-13 18:00:00,17.8,11.2,30.14,NW,304,8.0,8.0,75,0.00,,,0.00,Wunderground v.1.15,2013-01-14 00:00:00,
2013-01-13 18:05:00,17.8,11.2,30.14,NW,309,11.0,14.0,75,0.00,,,0.00,Wunderground v.1.15,2013-01-14 00:05:00,
2013-01-13 18:10:00,17.8,10.9,30.14,NW,309,4.0,9.0,74,0.00,,,0.00,Wunderground v.1.15,2013-01-14 00:10:00,
2013-01-13 18:15:00,17.8,10.9,30.15,NW,315,7.0,12.0,74,0.00,,,0.00,Wunderground v.1.15,2013-01-14 00:15:00,
2013-01-13 18:21:00,17.8,10.9,30.15,NW,309,3.0,8.0,74,0.00,,,0.00,Wunderground v.1.15,2013-01-14 00:21:00,
2013-01-13 18:27:00,17.8,10.9,30.15,WNW,300,3.0,15.0,74,0.00,,,0.00,Wunderground v.1.15,2013-01-14 00:27:00,
2013-01-13 18:32:00,17.7,11.1,30.16,WNW,284,12.0,12.0,75,0.00,,,0.00,Wunderground v.1.15,2013-01-14 00:32:00,
2013-01-13 18:37:00,17.7,10.8,30.16,NW,310,11.0,18.0,74,0.00,,,0.00,Wunderground v.1.15,2013-01-14 00:37:00,
2013-01-13 18:43:00,17.6,10.7,30.16,NW,313,7.0,12.0,74,0.00,,,0.00,Wunderground v.1.15,2013-01-14 00:43:00,
2013-01-13 18:48:00,17.7,11.1,30.17,NW,313,6.0,13.0,75,0.00,,,0.00,Wunderground v.1.15,2013-01-14 00:48:00,
2013-01-13 18:53:00,17.6,11.0,30.17,NNW,337,5.0,11.0,75,0.00,,,0.00,Wunderground v.1.15,2013-01-14 00:53:00,
2013-01-13 18:59:00,17.5,10.9,30.17,WNW,299,6.0,12.0,75,0.00,,,0.00,Wunderground v.1.15,2013-01-14 00:59:00,
2013-01-13 19:04:00,17.2,10.6,30.17,NW,308,11.0,15.0,75,0.00,,,0.00,Wunderground v.1.15,2013-01-14 01:04:00,
2013-01-13 19:09:00,17.0,10.4,30.17,WNW,295,5.0,15.0,75,0.00,,,0.00,Wunderground v.1.15,2013-01-14 01:09:00,
2013-01-13 19:15:00,16.8,9.9,30.17,NW,325,5.0,12.0,74,0.00,,,0.00,Wunderground v.1.15,2013-01-14 01:15:00,
2013-01-13 19:20:00,16.7,9.8,30.18,NNW,329,7.0,8.0,74,0.00,,,0.00,Wunderground v.1.15,2013-01-14 01:20:00,
2013-01-13 19:25:00,16.6,9.8,30.18,WNW,288,6.0,14.0,74,0.00,,,0.00,Wunderground v.1.15,2013-01-14 01:25:00,
2013-01-13 19:30:00,16.4,9.6,30.17,WNW,298,6.0,11.0,74,0.00,,,0.00,Wunderground v.1.15,2013-01-14 01:30:00,
2013-01-13 19:35:00,16.2,9.4,30.17,NW,316,9.0,12.0,74,0.00,,,0.00,Wunderground v.1.15,2013-01-14 01:35:00,
2013-01-13 19:41:00,15.9,9.1,30.18,NW,324,8.0,13.0,74,0.00,,,0.00,Wunderground v.1.15,2013-01-14 01:41:00,
2013-01-13 19:46:00,15.8,9.3,30.18,NW,316,6.0,17.0,75,0.00,,,0.00,Wunderground v.1.15,2013-01-14 01:46:00,
2013-01-13 19:51:00,15.7,9.2,30.18,NNW,345,7.0,10.0,75,0.00,,,0.00,Wunderground v.1.15,2013-01-14 01:51:00,
2013-01-13 19:57:00,15.6,9.1,30.19,NW,309,7.0,13.0,75,0.00,,,0.00,Wunderground v.1.15,2013-01-14 01:57:00,
2013-01-13 20:02:00,15.6,9.1,30.19,NNW,332,5.0,10.0,75,0.00,,,0.00,Wunderground v.1.15,2013-01-14 02:02:00,
2013-01-13 20:07:00,15.5,9.0,30.19,NW,315,6.0,12.0,75,0.00,,,0.00,Wunderground v.1.15,2013-01-14 02:07:00,
2013-01-13 20:12:00,15.4,8.9,30.19,NNW,329,6.0,18.0,75,0.00,,,0.00,Wunderground v.1.15,2013-01-14 02:12:00,
2013-01-13 20:17:00,15.3,9.1,30.19,NNW,338,6.0,18.0,76,0.00,,,0.00,Wunderground v.1.15,2013-01-14 02:17:00,
2013-01-13 20:23:00,15.2,9.0,30.19,NNW,348,11.0,11.0,76,0.00,,,0.00,Wunderground v.1.15,2013-01-14 02:23:00,
2013-01-13 20:28:00,15.0,8.8,30.20,NW,325,7.0,13.0,76,0.00,,,0.00,Wunderground v.1.15,2013-01-14 02:28:00,
2013-01-13 20:33:00,14.8,8.3,30.20,NW,323,9.0,15.0,75,0.00,,,0.00,Wunderground v.1.15,2013-01-14 02:33:00,
2013-01-13 20:38:00,14.5,8.0,30.20,NW,325,12.0,15.0,75,0.00,,,0.00,Wunderground v.1.15,2013-01-14 02:38:00,
2013-01-13 20:43:00,14.3,8.1,30.21,NW,320,7.0,12.0,76,0.00,,,0.00,Wunderground v.1.15,2013-01-14 02:43:00,
2013-01-13 20:48:00,14.3,8.1,30.21,WNW,302,9.0,16.0,76,0.00,,,0.00,Wunderground v.1.15,2013-01-14 02:48:00,
2013-01-13 20:54:00,14.1,7.9,30.21,NNW,328,7.0,17.0,76,0.00,,,0.00,Wunderground v.1.15,2013-01-14 02:54:00,
2013-01-13 20:59:00,14.1,7.6,30.21,NNW,342,10.0,17.0,75,0.00,,,0.00,Wunderground v.1.15,2013-01-14 02:59:00,
2013-01-13 21:05:00,13.9,7.4,30.21,NW,320,5.0,17.0,75,0.00,,,0.00,Wunderground v.1.15,2013-01-14 03:05:00,
2013-01-13 21:11:00,13.8,7.3,30.22,NNW,328,7.0,12.0,75,0.00,,,0.00,Wunderground v.1.15,2013-01-14 03:11:00,
2013-01-13 21:16:00,13.7,7.2,30.23,NW,320,8.0,16.0,75,0.00,,,0.00,Wunderground v.1.15,2013-01-14 03:16:00,
2013-01-13 21:21:00,13.7,7.2,30.23,WNW,294,13.0,13.0,75,0.00,,,0.00,Wunderground v.1.15,2013-01-14 03:21:00,
2013-01-13 21:27:00,13.7,7.2,30.22,NNW,333,6.0,15.0,75,0.00,,,0.00,Wunderground v.1.15,2013-01-14 03:27:00,
2013-01-13 21:32:00,13.7,7.5,30.23,WNW,298,7.0,12.0,76,0.00,,,0.00,Wunderground v.1.15,2013-01-14 03:32:00,
2013-01-13 21:38:00,13.8,7.6,30.23,NW,323,11.0,12.0,76,0.00,,,0.00,Wunderground v.1.15,2013-01-14 03:38:00,
2013-01-13 21:44:00,13.8,7.6,30.23,WNW,294,6.0,14.0,76,0.00,,,0.00,Wunderground v.1.15,2013-01-14 03:44:00,
2013-01-13 21:49:00,13.9,8.0,30.23,NNW,333,11.0,14.0,77,0.00,,,0.00,Wunderground v.1.15,2013-01-14 03:49:00,
2013-01-13 21:54:00,13.9,7.7,30.24,NW,315,12.0,12.0,76,0.00,,,0.00,Wunderground v.1.15,2013-01-14 03:54:00,
2013-01-13 21:59:00,12.4,6.3,30.23,West,264,1.0,12.0,76,0.00,,,0.00,Wunderground v.1.15,2013-01-14 03:59:00,
2013-01-13 22:04:00,12.5,6.4,30.23,West,270,3.0,6.0,76,0.00,,,0.00,Wunderground v.1.15,2013-01-14 04:04:00,
2013-01-13 22:09:00,12.5,6.4,30.23,West,281,0.0,6.0,76,0.00,,,0.00,Wunderground v.1.15,2013-01-14 04:09:00,
2013-01-13 22:14:00,12.5,6.7,30.23,West,276,2.0,3.0,77,0.00,,,0.00,Wunderground v.1.15,2013-01-14 04:14:00,
2013-01-13 22:19:00,12.6,6.5,30.24,WNW,300,1.0,4.0,76,0.00,,,0.00,Wunderground v.1.15,2013-01-14 04:19:00,
2013-01-13 22:24:00,12.6,6.5,30.23,WNW,302,1.0,2.0,76,0.00,,,0.00,Wunderground v.1.15,2013-01-14 04:24:00,
2013-01-13 22:29:00,14.0,7.5,30.24,NW,309,11.0,17.0,75,0.00,,,0.00,Wunderground v.1.15,2013-01-14 04:29:00,
2013-01-13 22:34:00,14.0,7.5,30.24,NW,308,3.0,13.0,75,0.00,,,0.00,Wunderground v.1.15,2013-01-14 04:34:00,
2013-01-13 22:39:00,14.1,7.9,30.25,NW,305,7.0,13.0,76,0.00,,,0.00,Wunderground v.1.15,2013-01-14 04:39:00,
2013-01-13 22:44:00,14.2,8.0,30.24,West,280,7.0,10.0,76,0.00,,,0.00,Wunderground v.1.15,2013-01-14 04:44:00,
2013-01-13 22:49:00,14.2,8.3,30.25,NNW,331,6.0,12.0,77,0.00,,,0.00,Wunderground v.1.15,2013-01-14 04:49:00,
2013-01-13 22:55:00,14.2,8.3,30.25,NW,315,11.0,11.0,77,0.00,,,0.00,Wunderground v.1.15,2013-01-14 04:55:00,
2013-01-13 23:00:00,14.2,8.0,30.25,NW,304,9.0,9.0,76,0.00,,,0.00,Wunderground v.1.15,2013-01-14 05:00:00,
2013-01-13 23:01:00,14.2,8.0,30.25,NNW,330,11.0,11.0,76,0.00,,,0.00,Wunderground v.1.15,2013-01-14 05:01:00,
2013-01-13 23:03:00,14.2,8.0,30.25,NW,306,10.0,11.0,76,0.00,,,0.00,Wunderground v.1.15,2013-01-14 05:03:00,
2013-01-13 23:08:00,14.2,8.0,30.25,NW,317,7.0,14.0,76,0.00,,,0.00,Wunderground v.1.15,2013-01-14 05:08:00,
2013-01-13 23:13:00,14.3,8.1,30.25,WNW,296,6.0,10.0,76,0.00,,,0.00,Wunderground v.1.15,2013-01-14 05:13:00,
2013-01-13 23:19:00,14.3,8.1,30.25,West,278,7.0,14.0,76,0.00,,,0.00,Wunderground v.1.15,2013-01-14 05:19:00,
2013-01-13 23:23:00,14.3,8.1,30.25,WNW,300,11.0,13.0,76,0.00,,,0.00,Wunderground v.1.15,2013-01-14 05:23:00,
2013-01-13 23:28:00,14.4,8.2,30.26,NW,316,10.0,15.0,76,0.00,,,0.00,Wunderground v.1.15,2013-01-14 05:28:00,
2013-01-13 23:33:00,14.4,8.5,30.25,NW,306,8.0,11.0,77,0.00,,,0.00,Wunderground v.1.15,2013-01-14 05:33:00,
2013-01-13 23:39:00,14.4,7.9,30.25,North,355,5.0,17.0,75,0.00,,,0.00,Wunderground v.1.15,2013-01-14 05:39:00,
2013-01-13 23:45:00,14.4,8.2,30.25,NNW,345,8.0,11.0,76,0.00,,,0.00,Wunderground v.1.15,2013-01-14 05:45:00,
2013-01-13 23:50:00,14.4,7.9,30.26,WNW,302,13.0,14.0,75,0.00,,,0.00,Wunderground v.1.15,2013-01-14 05:50:00,
2013-01-13 23:55:00,14.4,7.9,30.26,NNW,342,8.0,13.0,75,0.00,,,0.00,Wunderground v.1.15,2013-01-14 05:55:00,